Clovis ASC Data

Date Time Air Temperature Relative Humidity Dewpoint Windchill Heat Index Wind Speed Wind Dir. Rain Solar Radiation Soil Temperature Soil Temperature
2m 2m 3m 3m 5cm 10cm
US/Mountain F % F F F MPH deg in MJ/m^2 F F
max avg avg
2020-09-16 00:05:00 55.6 65.0 44.1 55.6 55.6 4.2 4.7 4.0 260.5 279.0 0.00 0.0000000 70.0 72.6
2020-09-16 00:10:00 57.1 61.9 44.1 57.1 57.1 4.2 4.7 4.2 274.2 275.7 0.00 0.0000000 69.8 72.4
2020-09-16 00:15:00 56.7 63.4 44.4 56.7 56.7 4.4 4.6 4.2 278.2 280.4 0.00 0.0000000 69.7 72.4
2020-09-16 00:20:00 56.1 64.0 44.1 56.1 56.1 4.2 4.7 4.1 279.2 280.5 0.00 0.0000000 69.6 72.2
2020-09-16 00:25:00 56.5 63.6 44.3 56.5 56.5 5.1 6.9 4.2 256.3 271.7 0.00 0.0000000 69.4 72.1
2020-09-16 00:30:00 59.9 58.1 45.1 59.9 59.9 4.9 6.0 5.0 242.0 259.6 0.00 0.0000000 69.3 72.1
2020-09-16 00:35:00 61.0 56.1 45.2 61.0 61.0 5.3 5.8 4.7 256.5 254.4 0.00 0.0000000 69.2 71.9
2020-09-16 00:40:00 61.0 56.4 45.4 61.0 61.0 4.6 5.6 4.7 266.8 258.5 0.00 0.0000000 69.1 71.8
2020-09-16 00:45:00 61.1 56.2 45.4 61.1 61.1 4.7 5.8 4.7 257.2 257.1 0.00 0.0000000 69.0 71.7
2020-09-16 00:50:00 60.0 58.7 45.5 60.0 60.0 4.0 5.1 4.4 279.9 277.5 0.00 0.0000000 68.9 71.7
2020-09-16 00:55:00 57.7 62.0 44.7 57.7 57.7 3.8 4.2 3.8 279.5 285.2 0.00 0.0000000 68.8 71.6
2020-09-16 01:00:00 56.8 65.6 45.4 56.8 56.8 2.1 4.2 3.1 266.4 269.1 0.00 0.0000000 68.8 71.5
2020-09-16 01:05:00 56.6 65.3 45.1 56.6 56.6 4.0 4.4 3.2 280.8 269.5 0.00 0.0000000 68.7 71.4
2020-09-16 01:10:00 57.5 64.1 45.5 57.5 57.5 4.6 5.6 4.4 250.8 259.7 0.00 0.0000000 68.6 71.3
2020-09-16 01:15:00 59.6 61.4 46.3 59.6 59.6 4.7 6.0 5.1 229.4 255.0 0.00 0.0000000 68.5 71.2
2020-09-16 01:20:00 61.0 59.6 46.8 61.0 61.0 6.0 7.1 5.4 268.1 254.8 0.00 0.0000000 68.4 71.1
2020-09-16 01:25:00 61.4 59.5 47.2 61.4 61.4 5.5 6.2 5.3 256.2 254.4 0.00 0.0000000 68.3 71.0
2020-09-16 01:30:00 61.4 59.3 47.1 61.4 61.4 5.6 6.7 5.5 286.3 258.2 0.00 0.0000000 68.2 71.0
2020-09-16 01:35:00 60.5 60.8 46.9 60.5 60.5 4.9 6.3 5.1 255.3 261.9 0.00 0.0000000 68.1 70.9
2020-09-16 01:40:00 59.9 61.9 46.8 59.9 59.9 5.3 6.2 4.7 245.3 252.9 0.00 0.0000000 68.1 70.8
2020-09-16 01:45:00 59.5 62.3 46.6 59.5 59.5 4.2 5.6 4.7 260.9 255.0 0.00 0.0000000 68.0 70.7
2020-09-16 01:50:00 59.7 62.0 46.7 59.7 59.7 5.5 6.0 5.1 249.9 258.8 0.00 0.0000000 67.9 70.7
2020-09-16 01:55:00 59.8 62.6 47.0 59.8 59.8 4.2 6.5 5.1 228.7 258.2 0.00 0.0000000 67.8 70.6
2020-09-16 02:00:00 59.3 63.8 47.1 59.3 59.3 4.4 5.8 4.6 251.5 251.9 0.00 0.0000000 67.8 70.5
2020-09-16 02:05:00 58.9 65.0 47.1 58.9 58.9 4.2 5.8 4.7 271.9 257.8 0.00 0.0000000 67.7 70.5
2020-09-16 02:10:00 58.9 64.9 47.1 58.9 58.9 6.7 6.7 5.4 257.6 261.6 0.00 0.0000000 67.6 70.4
2020-09-16 02:15:00 59.0 65.6 47.5 59.0 59.0 6.0 6.9 5.7 256.9 262.9 0.00 0.0000000 67.6 70.3
2020-09-16 02:20:00 58.7 66.6 47.7 58.7 58.7 5.3 6.7 5.4 254.3 262.9 0.00 0.0000000 67.5 70.3
2020-09-16 02:25:00 58.6 67.2 47.8 58.6 58.6 6.2 6.7 5.2 275.2 265.0 0.00 0.0000000 67.4 70.2
2020-09-16 02:30:00 58.6 67.7 48.0 58.6 58.6 4.6 6.3 5.2 227.1 256.6 0.00 0.0000000 67.3 70.1
2020-09-16 02:35:00 58.6 68.2 48.1 58.6 58.6 5.1 6.2 5.2 250.2 256.5 0.00 0.0000000 67.2 70.1
2020-09-16 02:40:00 58.4 68.9 48.3 58.4 58.4 5.3 6.7 5.2 268.6 260.8 0.00 0.0000000 67.2 70.0
2020-09-16 02:45:00 58.4 69.2 48.3 58.4 58.4 5.8 6.3 5.6 268.7 263.3 0.00 0.0000000 67.1 69.9
2020-09-16 02:50:00 58.2 70.1 48.5 58.2 58.2 6.2 6.5 5.5 265.4 268.9 0.00 0.0000000 67.0 69.8
2020-09-16 02:55:00 58.1 70.4 48.5 58.1 58.1 5.8 6.7 5.5 265.5 276.4 0.00 0.0000000 66.9 69.8
2020-09-16 03:00:00 58.4 70.3 48.8 58.4 58.4 4.7 6.9 5.7 272.2 268.7 0.00 0.0000000 66.9 69.7
2020-09-16 03:05:00 58.6 70.0 48.9 58.6 58.6 5.8 6.3 5.5 262.9 274.2 0.00 0.0000000 66.8 69.6
2020-09-16 03:10:00 58.8 69.8 49.0 58.8 58.8 5.8 8.0 5.7 279.4 268.9 0.00 0.0000000 66.7 69.6
2020-09-16 03:15:00 59.0 69.5 49.0 59.0 59.0 7.1 7.6 6.2 260.5 263.3 0.00 0.0000000 66.7 69.5
2020-09-16 03:20:00 59.0 69.7 49.1 59.0 59.0 5.8 7.8 6.3 271.4 267.9 0.00 0.0000000 66.6 69.5
2020-09-16 03:25:00 59.0 70.3 49.3 59.0 59.0 6.3 7.4 6.2 261.3 269.1 0.00 0.0000000 66.5 69.4
2020-09-16 03:30:00 58.9 70.8 49.4 58.9 58.9 5.8 7.1 6.0 283.6 271.4 0.00 0.0000000 66.5 69.4
2020-09-16 03:35:00 59.0 70.9 49.6 59.0 59.0 6.5 7.4 6.2 268.8 270.4 0.00 0.0000000 66.4 69.3
2020-09-16 03:40:00 58.9 71.0 49.6 58.9 58.9 6.2 7.4 6.3 278.5 272.5 0.00 0.0000000 66.3 69.2
2020-09-16 03:45:00 58.9 71.2 49.6 58.9 58.9 7.4 7.6 6.1 252.7 267.7 0.00 0.0000000 66.3 69.2
2020-09-16 03:50:00 58.9 71.6 49.7 58.9 58.9 5.6 7.2 5.7 265.1 266.6 0.00 0.0000000 66.2 69.1
2020-09-16 03:55:00 58.6 72.2 49.6 58.6 58.6 5.1 6.5 5.6 283.3 274.9 0.00 0.0000000 66.1 69.0
2020-09-16 04:00:00 58.4 72.7 49.7 58.4 58.4 5.6 7.6 5.8 269.1 272.9 0.00 0.0000000 66.1 69.0
2020-09-16 04:05:00 58.4 72.8 49.7 58.4 58.4 5.8 6.7 5.7 290.2 268.2 0.00 0.0000000 66.0 69.0
2020-09-16 04:10:00 58.5 72.6 49.7 58.5 58.5 6.0 7.2 5.9 264.0 267.4 0.00 0.0000000 66.0 68.9
2020-09-16 04:15:00 58.5 72.5 49.7 58.5 58.5 4.4 6.5 5.5 260.9 269.6 0.00 0.0000000 65.9 68.8
2020-09-16 04:20:00 58.4 72.6 49.7 58.4 58.4 5.6 6.5 5.6 243.2 267.6 0.00 0.0000000 65.9 68.8
2020-09-16 04:25:00 58.4 72.6 49.7 58.4 58.4 6.3 6.9 5.8 259.6 269.5 0.00 0.0000000 65.8 68.7
2020-09-16 04:30:00 58.6 72.2 49.6 58.6 58.6 6.0 7.8 6.0 285.9 268.3 0.00 0.0000000 65.8 68.7
2020-09-16 04:35:00 58.5 72.5 49.7 58.5 58.5 5.8 7.2 5.6 261.7 263.7 0.00 0.0000000 65.7 68.6
2020-09-16 04:40:00 58.5 72.7 49.8 58.5 58.5 6.3 7.4 5.7 270.5 265.9 0.00 0.0000000 65.6 68.6
2020-09-16 04:45:00 58.5 72.9 49.9 58.5 58.5 6.3 7.4 5.9 255.0 265.3 0.00 0.0000000 65.6 68.5
2020-09-16 04:50:00 58.5 73.0 49.9 58.5 58.5 7.4 7.4 6.2 283.2 265.7 0.00 0.0000000 65.5 68.5
2020-09-16 04:55:00 58.5 73.2 49.9 58.5 58.5 5.6 8.0 6.3 288.3 266.0 0.00 0.0000000 65.5 68.4
2020-09-16 05:00:00 58.5 73.5 50.1 58.5 58.5 5.5 8.0 6.3 279.3 265.5 0.00 0.0000000 65.4 68.4
2020-09-16 05:05:00 58.5 74.1 50.3 58.5 58.5 5.3 7.4 5.8 237.7 265.4 0.00 0.0000000 65.4 68.3
2020-09-16 05:10:00 58.5 74.1 50.3 58.5 58.5 6.2 7.8 6.2 277.2 262.0 0.00 0.0000000 65.3 68.3
2020-09-16 05:15:00 58.4 74.4 50.3 58.4 58.4 6.5 8.0 6.2 272.4 262.2 0.00 0.0000000 65.2 68.2
2020-09-16 05:20:00 58.4 74.6 50.3 58.4 58.4 5.6 7.4 5.9 262.3 265.6 0.00 0.0000000 65.2 68.2
2020-09-16 05:25:00 58.2 75.4 50.5 58.2 58.2 7.1 7.1 5.8 273.2 270.0 0.00 0.0000000 65.1 68.1
2020-09-16 05:30:00 58.0 76.0 50.4 58.0 58.0 4.2 6.3 5.3 286.5 267.8 0.00 0.0000000 65.1 68.1
2020-09-16 05:35:00 57.8 76.3 50.4 57.8 57.8 5.5 6.9 5.7 254.7 269.0 0.00 0.0000000 65.1 68.0
2020-09-16 05:40:00 57.9 76.3 50.5 57.9 57.9 5.1 7.2 6.0 281.4 264.4 0.00 0.0000000 65.0 68.0
2020-09-16 05:45:00 58.0 76.3 50.6 58.0 58.0 5.8 8.3 6.3 291.6 272.1 0.00 0.0000000 64.9 67.9
2020-09-16 05:50:00 57.7 77.1 50.6 57.7 57.7 6.7 7.1 5.9 284.9 271.0 0.00 0.0000000 64.9 67.9
2020-09-16 05:55:00 57.5 77.8 50.6 57.5 57.5 6.3 7.8 5.9 285.2 279.9 0.00 0.0000000 64.8 67.8
2020-09-16 06:00:00 57.4 78.0 50.6 57.4 57.4 5.1 7.2 5.9 266.3 267.2 0.00 0.0000000 64.8 67.8
2020-09-16 06:05:00 57.5 77.8 50.6 57.5 57.5 6.5 8.0 6.1 256.8 269.3 0.00 0.0000000 64.7 67.7
2020-09-16 06:10:00 57.5 77.8 50.6 57.5 57.5 8.1 8.1 6.5 266.0 271.1 0.00 0.0000000 64.7 67.7
2020-09-16 06:15:00 57.5 77.9 50.7 57.5 57.5 7.8 8.3 6.8 285.3 274.5 0.00 0.0000000 64.6 67.6
2020-09-16 06:20:00 57.5 78.0 50.7 57.5 57.5 5.6 8.7 7.0 294.0 274.5 0.00 0.0000000 64.6 67.6
2020-09-16 06:25:00 57.6 78.2 50.8 57.6 57.6 5.1 8.5 6.2 278.0 271.0 0.00 0.0000000 64.5 67.5
2020-09-16 06:30:00 57.5 78.3 50.8 57.5 57.5 6.3 7.4 6.4 262.4 276.2 0.00 0.0000000 64.5 67.5
2020-09-16 06:35:00 57.5 78.6 50.9 57.5 57.5 7.1 8.1 6.6 250.3 277.0 0.00 0.0000026 64.4 67.4
2020-09-16 06:40:00 57.6 78.5 51.0 57.6 57.6 6.9 8.0 6.6 268.2 280.6 0.00 0.0004362 64.4 67.4
2020-09-16 06:45:00 57.8 78.0 51.0 57.8 57.8 7.2 8.1 6.9 290.6 280.0 0.00 0.0019746 64.3 67.4
2020-09-16 06:50:00 58.1 77.8 51.2 58.1 58.1 6.7 7.1 6.4 295.0 278.8 0.00 0.0039775 64.3 67.3
2020-09-16 06:55:00 58.3 77.6 51.3 58.3 58.3 6.0 8.0 6.1 255.8 277.0 0.00 0.0065075 64.2 67.3
2020-09-16 07:00:00 58.5 77.1 51.4 58.5 58.5 7.1 8.1 6.3 290.6 276.4 0.00 0.0097308 64.2 67.2
2020-09-16 07:05:00 59.0 76.1 51.5 59.0 59.0 6.0 8.5 6.9 286.4 273.2 0.00 0.0140530 64.2 67.2
2020-09-16 07:10:00 59.5 75.2 51.6 59.5 59.5 7.6 9.7 7.4 275.2 275.4 0.00 0.0193432 64.2 67.1
2020-09-16 07:15:00 59.8 74.8 51.8 59.8 59.8 5.8 8.8 7.1 274.6 272.9 0.00 0.0243202 64.1 67.1
2020-09-16 07:20:00 60.1 74.5 52.0 60.1 60.1 6.2 8.5 7.2 278.1 269.8 0.00 0.0287474 64.1 67.1
2020-09-16 07:25:00 60.5 73.7 52.0 60.5 60.5 5.8 8.7 6.8 252.3 268.1 0.00 0.0332012 64.2 67.0
2020-09-16 07:30:00 61.0 73.2 52.3 61.0 61.0 5.1 8.0 6.3 255.7 267.2 0.00 0.0378904 64.2 67.0
2020-09-16 07:35:00 61.4 72.3 52.4 61.4 61.4 7.1 7.8 6.1 276.0 268.4 0.00 0.0425663 64.2 67.0
2020-09-16 07:40:00 61.9 71.8 52.7 61.9 61.9 6.2 9.2 6.6 253.4 258.2 0.00 0.0474639 64.3 67.0
2020-09-16 07:45:00 62.3 71.6 53.0 62.3 62.3 6.2 7.8 5.7 229.5 262.2 0.00 0.0521019 64.3 66.9
2020-09-16 07:50:00 62.7 71.0 53.2 62.7 62.7 4.6 8.1 6.1 252.2 260.5 0.00 0.0572108 64.4 66.9
2020-09-16 07:55:00 63.2 69.7 53.1 63.2 63.2 6.9 8.3 5.9 269.4 263.6 0.00 0.0624039 64.5 66.9
2020-09-16 08:00:00 63.6 69.2 53.4 63.6 63.6 6.0 8.1 6.5 265.1 260.7 0.00 0.0676563 64.7 66.9
2020-09-16 08:05:00 64.1 67.9 53.3 64.1 64.1 6.7 8.7 6.8 266.8 261.8 0.00 0.0732206 64.8 66.9
2020-09-16 08:10:00 64.7 67.7 53.8 64.7 64.7 4.4 8.1 5.8 238.8 263.1 0.00 0.0787631 64.9 67.0
2020-09-16 08:15:00 65.2 66.4 53.7 65.2 65.2 5.1 7.2 5.3 254.5 262.5 0.00 0.0840265 65.0 67.0
2020-09-16 08:20:00 65.7 65.1 53.7 65.7 65.7 6.5 8.8 6.0 249.1 263.4 0.00 0.0888095 65.2 67.0
2020-09-16 08:25:00 66.0 64.2 53.5 66.0 66.0 5.6 9.2 6.5 271.2 258.7 0.00 0.0942347 65.4 67.0
2020-09-16 08:30:00 66.3 64.2 53.9 66.3 66.3 6.5 9.2 7.1 280.2 259.2 0.00 0.0984964 65.6 67.1
2020-09-16 08:35:00 66.6 62.9 53.5 66.6 66.6 7.2 9.7 7.3 251.3 257.9 0.00 0.1032056 65.8 67.1
2020-09-16 08:40:00 67.1 61.7 53.5 67.1 67.1 8.0 9.9 7.0 259.1 261.2 0.00 0.1079673 66.1 67.2
2020-09-16 08:45:00 67.3 61.9 53.8 67.3 67.3 5.6 8.7 6.5 236.9 259.2 0.00 0.1130789 66.3 67.2
2020-09-16 08:50:00 68.0 60.2 53.7 68.0 68.0 5.6 9.4 6.2 267.0 265.0 0.00 0.1193092 66.6 67.3
2020-09-16 08:55:00 68.3 59.9 53.9 68.3 68.3 6.2 9.2 6.9 270.4 264.4 0.00 0.1251327 66.8 67.4
2020-09-16 09:00:00 68.7 59.8 54.2 68.7 68.7 6.5 9.6 7.5 274.2 275.1 0.00 0.1310259 67.1 67.5
2020-09-16 09:05:00 69.2 58.0 53.8 69.2 69.2 6.3 8.5 6.7 282.8 261.5 0.00 0.1366968 67.4 67.6
2020-09-16 09:10:00 69.2 58.0 53.8 69.2 69.2 8.7 9.6 7.5 256.9 266.6 0.00 0.1425443 67.7 67.7
2020-09-16 09:15:00 69.7 56.9 53.8 69.7 69.7 7.2 9.2 7.2 261.7 273.4 0.00 0.1477498 68.0 67.8
2020-09-16 09:20:00 69.9 57.2 54.1 69.9 69.9 5.6 8.5 7.0 246.5 263.1 0.00 0.1527455 68.3 68.0
2020-09-16 09:25:00 70.8 54.9 53.8 70.8 70.8 7.8 7.8 6.0 244.8 258.7 0.00 0.1574109 68.7 68.1
2020-09-16 09:30:00 71.6 54.3 54.2 71.6 71.6 5.5 7.4 5.9 282.2 261.6 0.00 0.1623102 69.1 68.3
2020-09-16 09:35:00 72.2 53.8 54.6 72.2 72.2 4.9 8.0 5.8 217.8 248.7 0.00 0.1666172 69.4 68.4
2020-09-16 09:40:00 72.6 53.6 54.8 72.6 72.6 5.3 7.8 5.8 251.7 251.9 0.00 0.1710334 69.8 68.6
2020-09-16 09:45:00 73.0 53.1 54.9 73.0 73.0 7.1 7.6 5.7 228.8 243.7 0.00 0.1758127 70.2 68.7
2020-09-16 09:50:00 73.5 50.5 54.0 73.5 73.5 8.5 8.5 6.0 240.9 245.9 0.00 0.1806151 70.6 68.9
2020-09-16 09:55:00 73.6 50.2 53.9 73.6 73.6 8.1 8.3 6.8 248.0 273.0 0.00 0.1857810 71.0 69.1
2020-09-16 10:00:00 74.3 50.1 54.5 74.3 74.3 6.5 8.0 5.5 261.8 253.1 0.00 0.1899460 71.4 69.3
2020-09-16 10:05:00 74.6 48.6 54.0 74.6 74.6 4.6 8.8 6.1 259.8 275.4 0.00 0.1948137 71.8 69.5
2020-09-16 10:10:00 74.9 48.5 54.2 74.9 74.9 4.7 8.1 6.1 246.8 273.9 0.00 0.1985753 72.2 69.7
2020-09-16 10:15:00 74.8 48.4 54.0 74.8 74.8 6.2 10.1 6.6 267.7 281.9 0.00 0.2038888 72.6 69.9
2020-09-16 10:20:00 74.9 45.0 52.2 74.9 74.9 7.1 9.0 7.0 272.1 274.0 0.00 0.2088996 73.1 70.1
2020-09-16 10:25:00 75.8 45.7 53.4 75.8 75.8 5.6 7.4 5.5 244.6 266.7 0.00 0.2130641 73.5 70.4
2020-09-16 10:30:00 76.4 45.4 53.7 76.4 76.4 4.0 11.7 6.4 268.1 282.5 0.00 0.2162700 73.9 70.6
2020-09-16 10:35:00 77.3 42.3 52.7 77.3 77.3 5.3 7.8 5.2 261.6 280.0 0.00 0.2215832 74.3 70.8
2020-09-16 10:40:00 77.0 43.8 53.3 77.0 77.0 4.4 6.5 4.7 287.6 265.6 0.00 0.2246732 74.6 71.1
2020-09-16 10:45:00 77.5 44.5 54.1 77.5 77.5 6.5 8.3 6.2 280.4 312.4 0.00 0.2277390 74.9 71.3
2020-09-16 10:50:00 77.3 41.8 52.3 77.3 77.3 2.6 9.7 6.5 339.4 289.2 0.00 0.2297813 75.3 71.6
2020-09-16 10:55:00 77.9 42.2 53.1 77.9 77.9 6.7 8.1 4.3 295.5 304.4 0.00 0.2311253 75.6 71.8
2020-09-16 11:00:00 78.1 39.4 51.4 78.1 78.1 5.8 10.6 5.5 311.7 284.1 0.00 0.2335272 75.9 72.1
2020-09-16 11:05:00 77.8 39.5 51.2 77.8 77.8 4.9 7.6 5.4 327.9 296.1 0.00 0.2368843 76.3 72.4
2020-09-16 11:10:00 78.2 37.6 50.2 78.2 78.2 2.4 8.3 5.0 106.7 279.2 0.00 0.2389847 76.7 72.6
2020-09-16 11:15:00 78.9 37.1 50.5 78.9 78.9 4.6 4.9 3.4 222.0 124.5 0.00 0.2363657 77.1 72.9
2020-09-16 11:20:00 78.9 35.7 49.4 78.9 78.9 5.1 7.6 5.4 288.0 267.6 0.00 0.2341873 77.6 73.2
2020-09-16 11:25:00 78.4 35.6 48.9 78.4 78.4 1.9 6.3 3.8 188.9 273.3 0.00 0.2419335 78.0 73.5
2020-09-16 11:30:00 79.8 35.0 49.7 79.8 79.8 4.0 4.0 2.2 216.4 211.3 0.00 0.2483951 78.3 73.7
2020-09-16 11:35:00 80.8 29.8 46.2 80.8 80.8 4.0 5.8 3.7 168.5 194.6 0.00 0.2510360 78.7 74.0
2020-09-16 11:40:00 81.6 29.7 46.9 81.6 81.6 8.0 8.3 4.2 195.1 179.4 0.00 0.2558701 79.1 74.3
2020-09-16 11:45:00 80.4 30.8 46.9 80.4 80.4 3.5 8.1 5.0 248.8 218.4 0.00 0.2506555 79.6 74.6
2020-09-16 11:50:00 80.8 29.2 45.8 80.8 80.8 2.4 6.9 3.4 265.6 294.6 0.00 0.2601517 80.1 74.9
2020-09-16 11:55:00 82.0 25.6 43.3 82.0 82.0 4.9 5.5 3.3 31.6 35.8 0.00 0.2617682 80.5 75.1
2020-09-16 12:00:00 81.6 28.4 45.6 81.6 81.6 8.1 9.4 6.2 112.5 52.1 0.00 0.2661553 81.0 75.5
2020-09-16 12:05:00 81.7 26.5 44.0 81.7 81.7 6.5 9.6 5.9 89.5 94.5 0.00 0.2765675 81.4 75.7
2020-09-16 12:10:00 81.8 24.8 42.3 81.8 81.8 4.2 6.9 4.2 94.3 78.2 0.00 0.2760729 81.8 76.0
2020-09-16 12:15:00 81.2 25.4 42.5 81.2 81.2 8.7 10.1 6.9 42.0 39.4 0.00 0.2477306 82.2 76.3
2020-09-16 12:20:00 79.9 26.4 42.3 79.9 79.9 4.7 8.3 6.2 1.0 24.4 0.00 0.0595399 82.7 76.5
2020-09-16 12:25:00 80.1 27.0 43.1 80.1 80.1 4.2 7.2 4.7 272.6 355.8 0.00 0.1771344 83.0 76.8
2020-09-16 12:30:00 81.6 24.6 41.9 81.6 81.6 7.8 7.8 3.9 109.2 218.4 0.00 0.2786301 83.1 77.1
2020-09-16 12:35:00 81.9 24.4 42.0 81.9 81.9 6.2 9.2 6.5 128.2 143.7 0.00 0.2829201 83.2 77.3
2020-09-16 12:40:00 82.3 21.4 38.9 82.3 82.3 8.0 8.0 4.7 171.8 184.8 0.00 0.2882517 83.4 77.5
2020-09-16 12:45:00 82.8 22.8 41.0 82.8 82.8 8.7 8.7 4.8 86.7 154.4 0.00 0.2885793 83.8 77.7
2020-09-16 12:50:00 83.8 21.9 40.8 83.8 83.8 5.1 9.4 5.9 181.1 127.3 0.00 0.2912318 84.1 77.8
2020-09-16 12:55:00 83.6 21.5 40.1 83.6 83.6 3.1 11.7 6.5 38.0 118.9 0.00 0.2960400 84.6 78.0
2020-09-16 13:00:00 83.4 20.8 39.2 83.4 83.4 3.1 10.5 5.7 199.9 128.9 0.00 0.3039627 85.0 78.2
2020-09-16 13:05:00 83.7 22.1 41.0 83.7 83.7 7.2 9.6 6.9 129.4 156.8 0.00 0.3052843 85.4 78.4
2020-09-16 13:10:00 83.3 19.5 37.4 83.3 83.3 5.1 9.7 6.8 42.5 111.2 0.00 0.3010264 85.9 78.6
2020-09-16 13:15:00 84.3 23.7 43.3 84.3 84.3 4.9 9.2 4.9 93.0 49.5 0.00 0.2972123 86.4 78.8
2020-09-16 13:20:00 83.4 22.8 41.5 83.4 83.4 9.9 10.8 8.4 58.4 25.0 0.00 0.2891114 86.7 79.0
2020-09-16 13:25:00 82.7 23.4 41.6 82.7 82.7 3.5 9.0 6.3 77.9 48.3 0.00 0.2887405 87.2 79.3
2020-09-16 13:30:00 83.1 24.7 43.3 83.1 83.1 3.3 3.8 2.9 220.6 155.6 0.00 0.2911882 87.5 79.5
2020-09-16 13:35:00 83.3 21.2 39.5 83.3 83.3 6.0 12.1 7.3 264.3 323.4 0.00 0.2939366 87.9 79.8
2020-09-16 13:40:00 84.4 21.5 40.9 84.4 84.4 5.8 7.1 3.7 67.1 345.8 0.00 0.2922173 88.3 80.0
2020-09-16 13:45:00 83.9 22.2 41.3 83.9 83.9 4.4 8.5 4.9 30.2 48.2 0.00 0.2293195 88.6 80.3
2020-09-16 13:50:00 83.0 22.1 40.3 83.0 83.0 9.4 11.0 6.5 55.8 54.2 0.00 0.1138642 88.9 80.5
2020-09-16 13:55:00 83.0 23.1 41.4 83.0 83.0 5.5 8.3 5.8 38.6 50.5 0.00 0.2552864 89.2 80.8
2020-09-16 14:00:00 84.1 22.2 41.4 84.1 84.1 3.7 7.2 4.2 324.4 14.3 0.00 0.2784419 89.2 81.1
2020-09-16 14:05:00 85.0 21.9 41.8 85.0 85.0 5.6 11.7 7.1 19.2 38.6 0.00 0.2759680 89.3 81.3
2020-09-16 14:10:00 83.8 21.5 40.3 83.8 83.8 11.9 13.0 8.4 12.0 11.4 0.00 0.2702164 89.5 81.5
2020-09-16 14:15:00 84.1 21.7 40.8 84.1 84.1 5.3 12.2 7.6 1.3 9.3 0.00 0.2653958 89.7 81.7
2020-09-16 14:20:00 83.6 22.1 40.9 83.6 83.6 9.7 10.3 6.5 320.0 20.8 0.00 0.2651828 89.9 82.0
2020-09-16 14:25:00 84.1 21.4 40.4 84.1 84.1 6.3 11.0 6.5 21.8 1.0 0.00 0.2632517 90.1 82.1
2020-09-16 14:30:00 84.0 21.4 40.3 84.0 84.0 9.0 14.2 9.7 30.3 37.4 0.00 0.2621381 90.3 82.3
2020-09-16 14:35:00 83.6 21.7 40.4 83.6 83.6 8.1 13.5 8.9 3.6 32.9 0.00 0.2122688 90.5 82.5
2020-09-16 14:40:00 82.8 21.7 39.8 82.8 82.8 9.6 9.6 7.1 345.3 12.4 0.00 0.1745674 90.7 82.7
2020-09-16 14:45:00 83.4 21.2 39.6 83.4 83.4 3.5 9.7 5.6 47.7 10.3 0.00 0.1466493 90.7 82.9
2020-09-16 14:50:00 82.7 21.7 39.7 82.7 82.7 2.2 7.8 4.3 8.1 22.5 0.00 0.1652058 90.7 83.1
2020-09-16 14:55:00 83.7 19.5 37.7 83.7 83.7 5.6 9.7 5.1 85.6 44.2 0.00 0.2157016 90.7 83.3
2020-09-16 15:00:00 84.1 19.6 38.1 84.1 84.1 6.3 13.5 8.0 342.5 37.9 0.00 0.2277976 90.6 83.4
2020-09-16 15:05:00 83.8 17.2 34.6 83.8 83.8 6.3 13.3 7.7 49.4 43.0 0.00 0.2230604 90.6 83.5
2020-09-16 15:10:00 84.1 18.3 36.4 84.1 84.1 4.2 6.7 4.6 247.8 334.5 0.00 0.2202055 90.7 83.6
2020-09-16 15:15:00 84.4 16.4 34.0 84.4 84.4 4.9 9.2 5.3 303.1 317.8 0.00 0.2073678 90.7 83.7
2020-09-16 15:20:00 85.0 16.7 34.8 85.0 85.0 6.2 10.3 5.2 113.8 57.5 0.00 0.2101131 90.8 83.8
2020-09-16 15:25:00 84.8 16.3 34.1 84.8 84.8 7.4 11.7 8.5 54.5 76.6 0.00 0.2099911 90.9 83.9
2020-09-16 15:30:00 85.0 16.5 34.5 85.0 85.0 3.1 12.1 6.2 51.8 46.4 0.00 0.2079848 90.9 84.0
2020-09-16 15:35:00 83.4 18.2 35.7 83.4 83.4 6.7 11.2 7.3 34.3 29.0 0.00 0.0600475 91.0 84.1
2020-09-16 15:40:00 84.7 17.1 35.3 84.7 84.7 8.3 11.0 6.3 44.3 21.9 0.00 0.2026374 91.0 84.2
2020-09-16 15:45:00 84.1 17.6 35.5 84.1 84.1 3.8 13.3 5.4 61.1 22.7 0.00 0.1971875 90.9 84.3
2020-09-16 15:50:00 84.8 18.7 37.6 84.8 84.8 7.1 8.3 5.7 336.2 31.4 0.00 0.1953053 90.9 84.4
2020-09-16 15:55:00 84.7 19.1 38.0 84.7 84.7 9.2 15.5 9.2 19.2 29.2 0.00 0.1707160 90.8 84.5
2020-09-16 16:00:00 83.6 18.7 36.6 83.6 83.6 7.1 12.1 8.8 20.9 18.0 0.00 0.1619027 90.8 84.5
2020-09-16 16:05:00 83.5 19.2 37.1 83.5 83.5 9.9 14.0 8.7 71.2 46.3 0.00 0.1606612 90.8 84.5
2020-09-16 16:10:00 83.3 19.7 37.7 83.3 83.3 4.4 11.2 7.7 70.7 50.1 0.00 0.1636732 90.7 84.5
2020-09-16 16:15:00 83.6 19.6 37.8 83.6 83.6 5.8 9.4 7.1 19.0 38.1 0.00 0.1584661 90.6 84.5
2020-09-16 16:20:00 83.4 19.5 37.5 83.4 83.4 6.5 11.5 7.5 2.2 10.1 0.00 0.1534946 90.6 84.5
2020-09-16 16:25:00 82.9 19.6 37.2 82.9 82.9 8.1 10.1 7.4 0.3 16.7 0.00 0.0772785 90.5 84.5
2020-09-16 16:30:00 83.0 19.5 37.1 83.0 83.0 6.2 9.7 6.8 56.1 6.2 0.00 0.1165477 90.4 84.6
2020-09-16 16:35:00 83.4 19.2 37.1 83.4 83.4 7.1 8.5 5.6 13.6 33.1 0.00 0.1433816 90.2 84.6
2020-09-16 16:40:00 83.6 18.8 36.8 83.6 83.6 10.5 13.0 8.1 42.5 29.7 0.00 0.1173117 90.1 84.5
2020-09-16 16:45:00 83.2 18.9 36.5 83.2 83.2 9.4 12.6 9.2 88.0 359.5 0.00 0.1126997 89.9 84.6
2020-09-16 16:50:00 83.0 19.3 36.9 83.0 83.0 4.6 12.8 8.8 30.8 11.2 0.00 0.1162134 89.7 84.5
2020-09-16 16:55:00 83.3 18.7 36.4 83.3 83.3 8.0 9.9 6.8 41.6 3.5 0.00 0.0930520 89.6 84.5
2020-09-16 17:00:00 83.6 18.7 36.6 83.6 83.6 9.2 10.6 5.7 339.9 10.9 0.00 0.1037751 89.4 84.5
2020-09-16 17:05:00 83.2 18.9 36.5 83.2 83.2 9.0 12.8 8.0 64.1 353.3 0.00 0.0811183 89.2 84.4
2020-09-16 17:10:00 83.4 18.9 36.7 83.4 83.4 6.2 11.9 7.3 346.3 356.8 0.00 0.1046175 89.0 84.4
2020-09-16 17:15:00 83.4 18.5 36.2 83.4 83.4 7.8 10.5 8.2 42.2 12.2 0.00 0.0993658 88.8 84.4
2020-09-16 17:20:00 82.8 18.8 36.1 82.8 82.8 9.7 12.2 7.9 15.5 24.9 0.00 0.0934922 88.7 84.3
2020-09-16 17:25:00 82.4 18.9 35.9 82.4 82.4 9.7 12.8 8.9 18.8 38.9 0.00 0.0858708 88.5 84.3
2020-09-16 17:30:00 82.5 19.0 36.1 82.5 82.5 7.1 12.2 7.8 40.4 31.5 0.00 0.0799343 88.3 84.2
2020-09-16 17:35:00 82.4 18.7 35.7 82.4 82.4 12.1 12.1 8.4 24.4 34.9 0.00 0.0754518 88.1 84.2
2020-09-16 17:40:00 81.9 19.2 35.9 81.9 81.9 8.3 11.3 7.8 64.0 40.9 0.00 0.0700396 87.9 84.1
2020-09-16 17:45:00 82.2 19.0 35.8 82.2 82.2 10.1 19.0 10.5 12.2 37.6 0.00 0.0641904 87.6 84.0
2020-09-16 17:50:00 81.7 19.1 35.6 81.7 81.7 8.8 10.6 7.8 40.9 23.8 0.00 0.0572798 87.4 84.0
2020-09-16 17:55:00 81.3 19.4 35.7 81.3 81.3 6.0 10.6 7.7 44.0 35.0 0.00 0.0517540 87.1 83.9
2020-09-16 18:00:00 81.1 19.4 35.4 81.1 81.1 9.2 12.2 8.3 16.0 22.4 0.00 0.0466105 86.8 83.8
2020-09-16 18:05:00 80.9 18.9 34.7 80.9 80.9 8.8 9.7 7.4 6.7 15.6 0.00 0.0416394 86.5 83.7
2020-09-16 18:10:00 80.5 18.9 34.3 80.5 80.5 10.6 11.0 8.6 10.2 16.3 0.00 0.0354225 86.2 83.6
2020-09-16 18:15:00 80.3 19.1 34.4 80.3 80.3 7.1 9.7 7.2 22.0 24.2 0.00 0.0299599 85.9 83.5
2020-09-16 18:20:00 79.9 19.6 34.7 79.9 79.9 4.0 8.5 6.1 7.3 18.3 0.00 0.0237222 85.6 83.4
2020-09-16 18:25:00 79.3 20.1 34.9 79.3 79.3 7.2 9.2 6.4 11.3 24.3 0.00 0.0197640 85.3 83.3
2020-09-16 18:30:00 78.8 20.5 35.0 78.8 78.8 4.9 8.8 6.4 20.9 21.4 0.00 0.0140576 85.0 83.1
2020-09-16 18:35:00 78.3 21.1 35.3 78.3 78.3 5.5 9.0 6.8 21.7 21.7 0.00 0.0101470 84.7 83.0
2020-09-16 18:40:00 77.8 21.6 35.4 77.8 77.8 5.6 6.9 5.4 0.2 16.8 0.00 0.0079715 84.4 82.9
2020-09-16 18:45:00 77.0 22.5 35.7 77.0 77.0 4.4 6.5 4.6 1.5 9.3 0.00 0.0042909 84.1 82.7
2020-09-16 18:50:00 76.2 23.3 36.0 76.2 76.2 4.0 6.5 4.7 345.3 357.0 0.00 0.0019786 83.8 82.6
2020-09-16 18:55:00 75.4 24.6 36.7 75.4 75.4 5.1 6.7 4.9 21.0 359.4 0.00 0.0002399 83.5 82.4
2020-09-16 19:00:00 74.8 25.5 37.1 74.8 74.8 3.8 6.3 4.6 13.5 3.4 0.00 0.0000000 83.2 82.3
2020-09-16 19:05:00 74.2 26.4 37.4 74.2 74.2 5.5 6.5 4.8 13.8 12.7 0.00 0.0000000 82.9 82.1
2020-09-16 19:10:00 73.9 27.6 38.3 73.9 73.9 3.8 7.4 5.3 343.3 12.5 0.00 0.0000000 82.5 82.0
2020-09-16 19:15:00 73.3 28.8 38.9 73.3 73.3 4.0 6.0 4.2 63.7 3.9 0.00 0.0000000 82.2 81.8
2020-09-16 19:20:00 72.8 30.5 40.0 72.8 72.8 4.7 6.7 4.8 4.1 8.4 0.00 0.0000000 82.0 81.6
2020-09-16 19:25:00 72.4 32.5 41.3 72.4 72.4 4.7 6.5 4.8 30.5 10.2 0.00 0.0000000 81.6 81.4
2020-09-16 19:30:00 72.1 33.8 42.0 72.1 72.1 4.0 7.2 4.5 348.1 12.1 0.00 0.0000000 81.4 81.3
2020-09-16 19:35:00 71.8 34.9 42.6 71.8 71.8 3.5 6.2 4.2 9.6 28.5 0.00 0.0000000 81.1 81.1
2020-09-16 19:40:00 71.2 36.0 42.9 71.2 71.2 4.4 6.0 3.7 21.7 26.1 0.00 0.0000000 80.8 80.9
2020-09-16 19:45:00 70.8 37.0 43.3 70.8 70.8 4.9 6.7 4.5 24.4 21.7 0.00 0.0000000 80.6 80.8
2020-09-16 19:50:00 68.5 38.5 42.2 68.5 68.5 4.7 5.1 4.2 49.1 55.8 0.00 0.0000000 80.3 80.6
2020-09-16 19:55:00 67.8 40.4 42.9 67.8 67.8 3.1 6.0 3.9 8.3 41.0 0.00 0.0000000 80.1 80.4
2020-09-16 20:00:00 67.8 41.3 43.4 67.8 67.8 4.2 4.7 3.6 23.6 28.0 0.00 0.0000000 79.8 80.3
2020-09-16 20:05:00 68.2 40.9 43.5 68.2 68.2 5.8 6.0 3.8 12.9 19.9 0.00 0.0000000 79.6 80.1
2020-09-16 20:10:00 68.6 40.5 43.6 68.6 68.6 3.8 6.9 5.1 347.7 20.8 0.00 0.0000000 79.3 80.0
2020-09-16 20:15:00 68.7 40.8 44.0 68.7 68.7 6.0 7.2 5.5 32.2 19.5 0.00 0.0000000 79.1 79.8
2020-09-16 20:20:00 68.8 41.1 44.2 68.8 68.8 3.7 7.1 4.9 25.3 22.7 0.00 0.0000000 78.9 79.6
2020-09-16 20:25:00 68.7 41.6 44.4 68.7 68.7 4.7 7.1 5.5 1.3 25.6 0.00 0.0000000 78.6 79.5
2020-09-16 20:30:00 68.4 42.0 44.4 68.4 68.4 4.6 6.3 5.1 14.7 24.9 0.00 0.0000000 78.4 79.3
2020-09-16 20:35:00 68.3 42.5 44.7 68.3 68.3 4.4 6.5 4.9 18.9 20.7 0.00 0.0000000 78.2 79.2
2020-09-16 20:40:00 68.3 42.7 44.7 68.3 68.3 3.7 6.2 4.7 20.6 31.7 0.00 0.0000000 78.0 79.0
2020-09-16 20:45:00 68.0 43.1 44.8 68.0 68.0 5.3 6.3 4.6 3.2 26.5 0.00 0.0000000 77.8 78.9
2020-09-16 20:50:00 67.7 43.8 44.9 67.7 67.7 6.3 6.9 4.9 14.5 22.3 0.00 0.0000000 77.6 78.7
2020-09-16 20:55:00 67.7 44.1 45.1 67.7 67.7 5.5 7.1 4.8 9.0 15.2 0.00 0.0000000 77.5 78.6
2020-09-16 21:00:00 68.0 43.7 45.1 68.0 68.0 6.0 7.8 5.0 8.1 13.7 0.00 0.0000000 77.3 78.4
2020-09-16 21:05:00 68.1 43.9 45.3 68.1 68.1 6.2 8.0 5.8 18.5 17.4 0.00 0.0000000 77.1 78.3
2020-09-16 21:10:00 67.7 44.3 45.2 67.7 67.7 4.6 9.6 5.7 38.2 25.2 0.00 0.0000000 76.9 78.2
2020-09-16 21:15:00 67.2 45.1 45.2 67.2 67.2 8.0 8.0 5.9 27.1 21.4 0.00 0.0000000 76.7 78.0
2020-09-16 21:20:00 66.8 45.7 45.2 66.8 66.8 5.6 8.8 5.8 6.8 22.6 0.00 0.0000000 76.6 77.9
2020-09-16 21:25:00 66.5 46.6 45.4 66.5 66.5 5.5 8.1 5.5 31.4 23.9 0.00 0.0000000 76.4 77.8
2020-09-16 21:30:00 66.3 47.2 45.6 66.3 66.3 6.0 8.1 5.7 10.4 20.2 0.00 0.0000000 76.2 77.6
2020-09-16 21:35:00 66.0 47.8 45.7 66.0 66.0 4.7 6.9 4.9 14.9 24.8 0.00 0.0000000 76.1 77.5
2020-09-16 21:40:00 65.8 48.4 45.8 65.8 65.8 5.5 7.2 5.2 9.3 18.5 0.00 0.0000000 75.9 77.4
2020-09-16 21:45:00 65.7 48.8 45.9 65.7 65.7 7.4 8.5 5.8 20.2 16.9 0.00 0.0000000 75.8 77.3
2020-09-16 21:50:00 65.8 49.1 46.1 65.8 65.8 5.3 7.6 5.6 32.3 16.2 0.00 0.0000000 75.6 77.1
2020-09-16 21:55:00 65.7 49.4 46.2 65.7 65.7 6.9 7.4 5.6 31.6 15.2 0.00 0.0000000 75.4 77.0
2020-09-16 22:00:00 65.8 49.1 46.2 65.8 65.8 5.8 8.7 6.2 6.2 18.7 0.00 0.0000000 75.3 76.9
2020-09-16 22:05:00 65.7 49.4 46.2 65.7 65.7 6.3 7.8 5.4 263.3 21.2 0.00 0.0000000 75.1 76.8
2020-09-16 22:10:00 65.6 49.6 46.3 65.6 65.6 8.7 8.7 5.3 5.5 20.6 0.00 0.0000000 75.0 76.7
2020-09-16 22:15:00 65.5 50.0 46.3 65.5 65.5 5.5 7.4 5.4 24.6 23.9 0.00 0.0000000 74.8 76.6
2020-09-16 22:20:00 65.1 50.7 46.3 65.1 65.1 6.0 7.1 5.7 26.4 18.3 0.00 0.0000000 74.7 76.5
2020-09-16 22:25:00 64.6 51.5 46.4 64.6 64.6 4.0 7.1 4.9 45.1 25.6 0.00 0.0000000 74.6 76.4
2020-09-16 22:30:00 64.3 52.3 46.4 64.3 64.3 4.6 7.2 5.1 8.7 23.6 0.00 0.0000000 74.4 76.2
2020-09-16 22:35:00 64.0 52.8 46.4 64.0 64.0 5.3 7.6 5.1 2.7 25.2 0.00 0.0000000 74.3 76.1
2020-09-16 22:40:00 63.8 53.3 46.5 63.8 63.8 4.6 7.6 5.6 16.1 22.5 0.00 0.0000000 74.1 76.0
2020-09-16 22:45:00 63.5 53.7 46.4 63.5 63.5 6.2 7.1 5.2 12.2 22.3 0.00 0.0000000 74.0 75.9
2020-09-16 22:50:00 63.4 53.7 46.3 63.4 63.4 4.4 7.6 5.5 18.6 22.3 0.00 0.0000000 73.9 75.8
2020-09-16 22:55:00 63.4 54.0 46.5 63.4 63.4 5.6 6.9 5.1 40.3 27.5 0.00 0.0000000 73.7 75.7
2020-09-16 23:00:00 63.4 53.9 46.4 63.4 63.4 6.0 7.6 5.3 264.0 25.3 0.00 0.0000000 73.6 75.6
2020-09-16 23:05:00 63.6 53.6 46.5 63.6 63.6 5.1 7.8 5.5 19.6 27.4 0.00 0.0000000 73.5 75.5
2020-09-16 23:10:00 63.8 53.3 46.5 63.8 63.8 6.0 7.4 5.5 0.4 27.7 0.00 0.0000000 73.3 75.4
2020-09-16 23:15:00 63.5 53.7 46.4 63.5 63.5 8.7 8.7 5.9 59.3 40.1 0.00 0.0000000 73.2 75.3
2020-09-16 23:20:00 62.7 55.6 46.5 62.7 62.7 9.0 9.0 6.9 55.8 45.6 0.00 0.0000000 73.1 75.2
2020-09-16 23:25:00 62.4 55.4 46.2 62.4 62.4 7.1 10.6 8.0 50.6 50.3 0.00 0.0000000 73.0 75.1
2020-09-16 23:30:00 63.2 53.1 45.8 63.2 63.2 9.0 9.6 7.4 42.1 44.7 0.00 0.0000000 72.8 75.0
2020-09-16 23:35:00 63.2 53.4 46.0 63.2 63.2 8.0 8.5 7.3 66.6 54.4 0.00 0.0000000 72.7 74.9
2020-09-16 23:40:00 62.4 54.3 45.7 62.4 62.4 6.3 8.3 7.3 43.6 58.0 0.00 0.0000000 72.6 74.8
2020-09-16 23:45:00 62.2 55.0 45.8 62.2 62.2 7.2 7.4 6.2 33.3 45.4 0.00 0.0000000 72.5 74.7
2020-09-16 23:50:00 62.2 55.1 45.9 62.2 62.2 7.4 7.6 5.5 34.5 39.5 0.00 0.0000000 72.4 74.6
2020-09-16 23:55:00 62.0 55.7 46.0 62.0 62.0 3.7 7.4 4.8 39.2 37.9 0.00 0.0000000 72.2 74.5
2020-09-17 00:00:00 61.7 56.7 46.2 61.7 61.7 6.7 6.9 4.6 48.7 42.4 0.00 0.0000000 72.1 74.4

Data is courtesy of the NM Climate Center. DO NOT USE IN LEGAL PROCEEDINGS.